Time;durP1;ratioP1;P1;durP2;ratioP2;P2;SDS_P1;SDS_P2;PMS_P1;PMS_P2;Temp;Humidity;BMP_temperature;BMP_pressure;BME280_temperature;BME280_humidity;BME280_pressure;Samples;Min_cycle;Max_cycle;Signal;HPM_P1;HPM_P2
2021/12/09 00:01:36;;;;;;;42.22;22.80;;;1.10;99.90;;;;;;5075271;28;20280;-79
2021/12/09 00:04:08;;;;;;;45.38;22.48;;;1.10;99.90;;;;;;5075275;28;20640;-79
2021/12/09 00:06:36;;;;;;;38.03;22.00;;;1.10;99.90;;;;;;5075443;28;20649;-80
2021/12/09 00:09:06;;;;;;;45.33;22.98;;;1.10;99.90;;;;;;5075519;28;20197;-79
2021/12/09 00:11:41;;;;;;;38.50;21.83;;;1.10;99.90;;;;;;5075497;28;20651;-80
2021/12/09 00:14:07;;;;;;;47.55;22.60;;;1.50;99.90;;;;;;5075313;28;20267;-79
2021/12/09 00:16:34;;;;;;;41.85;21.23;;;1.00;99.90;;;;;;5075424;28;20601;-80
2021/12/09 00:19:00;;;;;;;53.53;23.77;;;1.10;99.90;;;;;;5075315;28;20220;-80
2021/12/09 00:21:28;;;;;;;39.50;21.42;;;1.10;99.90;;;;;;5074962;28;20186;-80
2021/12/09 00:23:55;;;;;;;46.00;23.58;;;1.00;99.90;;;;;;5075731;28;20265;-80
2021/12/09 00:26:22;;;;;;;53.50;24.15;;;1.70;99.90;;;;;;5075364;28;20235;-79
2021/12/09 00:28:49;;;;;;;49.90;23.70;;;1.30;99.90;;;;;;5075147;28;20225;-80
2021/12/09 00:31:17;;;;;;;42.20;21.70;;;1.50;99.90;;;;;;5066094;28;20281;-80
2021/12/09 00:33:45;;;;;;;51.53;24.23;;;1.40;99.90;;;;;;5080260;28;20188;-79
2021/12/09 00:36:14;;;;;;;46.15;22.63;;;1.10;99.90;;;;;;5076935;28;20189;-80
2021/12/09 00:38:43;;;;;;;41.28;21.65;;;1.20;99.90;;;;;;5074750;28;20263;-79
2021/12/09 00:41:12;;;;;;;39.45;21.52;;;1.20;99.90;;;;;;5074573;28;20196;-79
2021/12/09 00:43:39;;;;;;;46.35;23.88;;;1.20;99.90;;;;;;5074817;28;20276;-79
2021/12/09 00:46:07;;;;;;;41.42;20.95;;;1.10;99.90;;;;;;5075025;28;20217;-82
2021/12/09 00:48:34;;;;;;;52.92;25.42;;;1.10;99.90;;;;;;5074674;28;20190;-79
2021/12/09 00:51:01;;;;;;;46.75;24.90;;;1.10;99.90;;;;;;5074113;28;20698;-79
2021/12/09 00:53:28;;;;;;;46.58;22.17;;;1.00;99.90;;;;;;5074395;28;20279;-79
2021/12/09 00:55:56;;;;;;;45.15;22.85;;;1.10;99.90;;;;;;5074783;28;20233;-79
2021/12/09 00:58:23;;;;;;;45.85;22.95;;;1.10;99.90;;;;;;5074231;28;20205;-79
2021/12/09 01:00:50;;;;;;;47.63;24.15;;;1.00;99.90;;;;;;5069847;28;20693;-78
2021/12/09 01:03:18;;;;;;;49.08;24.50;;;1.00;99.90;;;;;;5065530;28;20248;-79
2021/12/09 01:05:45;;;;;;;48.63;23.25;;;1.00;99.90;;;;;;5072929;28;20842;-79
2021/12/09 01:08:13;;;;;;;50.33;25.02;;;1.00;99.90;;;;;;5074169;28;20189;-79
2021/12/09 01:10:40;;;;;;;56.00;26.35;;;1.00;99.90;;;;;;5074068;28;20217;-79
2021/12/09 01:13:08;;;;;;;41.45;23.67;;;1.00;99.90;;;;;;5074109;28;20676;-79
2021/12/09 01:15:35;;;;;;;47.15;24.95;;;1.10;99.90;;;;;;5073769;28;20217;-80
2021/12/09 01:18:02;;;;;;;48.38;25.17;;;1.00;99.90;;;;;;5074213;28;20607;-80
2021/12/09 01:20:29;;;;;;;45.22;24.15;;;1.00;99.90;;;;;;5074343;28;20208;-80
2021/12/09 01:22:57;;;;;;;49.80;23.42;;;1.00;99.90;;;;;;5074009;28;20280;-80
2021/12/09 01:25:27;;;;;;;52.20;25.33;;;1.00;99.90;;;;;;5073957;28;20268;-79
2021/12/09 01:27:56;;;;;;;48.42;25.13;;;0.90;99.90;;;;;;5074000;28;20181;-80
2021/12/09 01:30:25;;;;;;;54.80;25.80;;;0.90;99.90;;;;;;5074122;28;20181;-79
2021/12/09 01:32:55;;;;;;;44.35;23.33;;;0.90;99.90;;;;;;5073945;28;20193;-80
2021/12/09 01:35:24;;;;;;;47.15;23.48;;;0.90;99.90;;;;;;5073843;28;20182;-80
2021/12/09 01:37:54;;;;;;;45.42;23.30;;;0.90;99.90;;;;;;5073834;28;20312;-80
2021/12/09 01:40:22;;;;;;;45.25;23.33;;;1.00;99.90;;;;;;5073683;28;20207;-79
2021/12/09 01:42:49;;;;;;;48.83;24.80;;;1.00;99.90;;;;;;5073854;28;20727;-80
2021/12/09 01:45:15;;;;;;;42.08;22.83;;;1.00;99.90;;;;;;5074034;28;20276;-80
2021/12/09 01:47:44;;;;;;;44.92;23.75;;;1.30;99.90;;;;;;5073756;28;20225;-80
2021/12/09 01:50:12;;;;;;;49.30;23.08;;;1.00;99.90;;;;;;5073627;28;20221;-79
2021/12/09 01:52:39;;;;;;;53.75;25.27;;;1.10;99.90;;;;;;5073125;28;20720;-79
2021/12/09 01:55:08;;;;;;;53.88;27.33;;;1.10;99.90;;;;;;5073098;28;20211;-79
2021/12/09 01:57:34;;;;;;;52.33;24.67;;;1.10;99.90;;;;;;5073235;28;20210;-79
2021/12/09 02:00:01;;;;;;;59.50;25.98;;;1.20;99.90;;;;;;5072985;28;20730;-80
2021/12/09 02:02:28;;;;;;;48.80;24.42;;;1.00;99.90;;;;;;5073173;28;20228;-79
2021/12/09 02:04:56;;;;;;;49.63;24.92;;;1.20;99.90;;;;;;5073268;28;20276;-80
2021/12/09 02:07:22;;;;;;;53.40;25.85;;;0.90;99.90;;;;;;5073088;28;20212;-79
2021/12/09 02:09:49;;;;;;;59.15;27.15;;;1.00;99.90;;;;;;5073584;28;20304;-79
2021/12/09 02:12:15;;;;;;;54.05;25.92;;;1.00;99.90;;;;;;5073002;28;20281;-79
2021/12/09 02:14:44;;;;;;;50.17;26.88;;;1.00;99.90;;;;;;5073129;28;20185;-79
2021/12/09 02:17:11;;;;;;;53.30;25.92;;;1.00;99.90;;;;;;5072903;28;20677;-79
2021/12/09 02:19:42;;;;;;;50.05;25.30;;;1.00;99.90;;;;;;5072927;28;20220;-79
2021/12/09 02:22:10;;;;;;;54.10;26.48;;;1.00;99.90;;;;;;5072860;28;20218;-80
2021/12/09 02:24:38;;;;;;;51.35;24.40;;;1.00;99.90;;;;;;5073022;28;20541;-79
2021/12/09 02:27:06;;;;;;;45.33;24.60;;;1.00;99.90;;;;;;5072783;28;20280;-79
2021/12/09 02:29:32;;;;;;;47.45;25.23;;;1.00;99.90;;;;;;5066773;28;20272;-80
2021/12/09 02:32:01;;;;;;;57.35;27.35;;;1.00;99.90;;;;;;5073062;28;20284;-80
2021/12/09 02:34:28;;;;;;;49.83;24.58;;;1.10;99.90;;;;;;5056436;28;20181;-81
2021/12/09 02:36:55;;;;;;;49.95;26.42;;;1.00;99.90;;;;;;5072315;28;20181;-80
2021/12/09 02:39:23;;;;;;;51.88;26.17;;;1.30;99.90;;;;;;5072225;28;20584;-80
2021/12/09 02:41:50;;;;;;;47.67;26.08;;;1.00;99.90;;;;;;5073066;28;20216;-80
2021/12/09 02:44:20;;;;;;;45.58;23.33;;;1.00;99.90;;;;;;5072357;28;20189;-79
2021/12/09 02:46:49;;;;;;;49.60;24.90;;;1.00;99.90;;;;;;5070729;28;20220;-80
2021/12/09 02:49:18;;;;;;;50.72;23.63;;;1.00;99.90;;;;;;5072803;28;20239;-80
2021/12/09 02:51:46;;;;;;;51.83;24.75;;;1.00;99.90;;;;;;5072455;28;20758;-80
2021/12/09 02:54:16;;;;;;;55.42;27.80;;;1.10;99.90;;;;;;5070593;28;20190;-79
2021/12/09 02:56:45;;;;;;;55.47;27.85;;;1.10;99.90;;;;;;5070380;28;20656;-80
2021/12/09 02:59:12;;;;;;;56.38;26.55;;;1.10;99.90;;;;;;5062453;28;20251;-79
2021/12/09 03:01:47;;;;;;;50.25;26.85;;;1.10;99.90;;;;;;5072494;28;20273;-79
2021/12/09 03:04:14;;;;;;;53.03;24.95;;;1.10;99.90;;;;;;5072637;28;20207;-79
2021/12/09 03:06:42;;;;;;;52.50;27.60;;;1.10;99.90;;;;;;5073071;28;20189;-79
2021/12/09 03:09:13;;;;;;;44.72;25.17;;;1.00;99.90;;;;;;5072559;28;20186;-79
2021/12/09 03:11:40;;;;;;;51.40;25.02;;;1.00;99.90;;;;;;5073017;28;20189;-79
2021/12/09 03:14:09;;;;;;;43.58;25.10;;;1.00;99.90;;;;;;5072167;28;20216;-80
2021/12/09 03:16:36;;;;;;;57.83;26.98;;;1.00;99.90;;;;;;5072496;28;20220;-80
2021/12/09 03:19:05;;;;;;;48.65;25.55;;;1.00;99.90;;;;;;5072556;28;20276;-80
2021/12/09 03:21:36;;;;;;;51.05;24.42;;;1.00;99.90;;;;;;5072541;28;20224;-80
2021/12/09 03:24:04;;;;;;;56.40;27.88;;;1.00;99.90;;;;;;5072546;28;20181;-80
2021/12/09 03:26:34;;;;;;;49.33;25.58;;;1.00;99.90;;;;;;5072181;28;20216;-80
2021/12/09 03:29:04;;;;;;;57.85;25.55;;;1.00;99.90;;;;;;5072434;28;20216;-80
2021/12/09 03:31:33;;;;;;;48.97;26.13;;;0.90;99.90;;;;;;5072783;28;20189;-80
2021/12/09 03:34:00;;;;;;;48.25;24.80;;;0.90;99.90;;;;;;5072570;28;20264;-80
2021/12/09 03:36:28;;;;;;;54.72;25.52;;;0.90;99.90;;;;;;5072804;28;20190;-80
2021/12/09 03:38:55;;;;;;;49.67;26.35;;;1.00;99.90;;;;;;5072141;28;20225;-80
2021/12/09 03:41:22;;;;;;;50.25;24.33;;;1.00;99.90;;;;;;5072313;28;20258;-80
2021/12/09 03:43:49;;;;;;;51.35;25.48;;;1.00;99.90;;;;;;5072673;28;20272;-80
2021/12/09 03:46:15;;;;;;;43.95;24.02;;;1.00;99.90;;;;;;5072768;28;20272;-79
2021/12/09 03:48:44;;;;;;;52.75;26.08;;;1.00;99.90;;;;;;5072703;28;20276;-79
2021/12/09 03:51:10;;;;;;;49.05;24.85;;;1.00;99.90;;;;;;5073002;28;20268;-79
2021/12/09 03:53:37;;;;;;;49.40;26.92;;;1.00;99.90;;;;;;5072106;28;20272;-80
2021/12/09 03:56:04;;;;;;;53.20;25.95;;;1.00;99.90;;;;;;5072468;28;20193;-80
2021/12/09 03:58:31;;;;;;;52.10;26.15;;;1.00;99.90;;;;;;5072669;28;20300;-80
2021/12/09 04:00:57;;;;;;;48.90;23.80;;;1.00;99.90;;;;;;5072305;28;20272;-80
2021/12/09 04:03:24;;;;;;;48.15;24.60;;;1.40;99.90;;;;;;5071832;28;20273;-81
2021/12/09 04:05:52;;;;;;;51.33;24.98;;;1.20;99.90;;;;;;5071640;28;20229;-81
2021/12/09 04:08:20;;;;;;;53.38;25.77;;;1.00;99.90;;;;;;5071315;28;20272;-80
2021/12/09 04:10:49;;;;;;;47.42;24.40;;;1.00;99.90;;;;;;5071931;28;20185;-81
2021/12/09 04:13:16;;;;;;;51.65;26.70;;;1.20;99.90;;;;;;5072017;28;20211;-81
2021/12/09 04:15:42;;;;;;;53.92;25.30;;;1.00;99.90;;;;;;5072536;28;20221;-81
2021/12/09 04:18:09;;;;;;;47.17;24.98;;;1.00;99.90;;;;;;5075295;28;20268;-81
2021/12/09 04:20:36;;;;;;;53.92;26.38;;;1.00;99.90;;;;;;5075624;28;20193;-81
2021/12/09 04:23:05;;;;;;;57.95;28.08;;;0.90;99.90;;;;;;5075196;28;20189;-81
2021/12/09 04:25:32;;;;;;;55.83;25.75;;;0.90;99.90;;;;;;5075062;28;20181;-81
2021/12/09 04:27:59;;;;;;;47.92;24.98;;;0.90;99.90;;;;;;5075228;28;20267;-80
2021/12/09 04:30:26;;;;;;;48.95;26.30;;;1.00;99.90;;;;;;5058601;28;20268;-80
2021/12/09 04:32:54;;;;;;;54.83;25.50;;;1.00;99.90;;;;;;5075229;28;20217;-80
2021/12/09 04:35:21;;;;;;;47.13;24.55;;;0.90;99.90;;;;;;5074630;28;20276;-80
2021/12/09 04:37:48;;;;;;;51.85;24.92;;;0.90;99.90;;;;;;5074528;28;20284;-80
2021/12/09 04:40:17;;;;;;;53.30;26.70;;;1.00;99.90;;;;;;5074916;28;20217;-81
2021/12/09 04:42:45;;;;;;;51.90;25.55;;;1.10;99.90;;;;;;5074723;28;20696;-81
2021/12/09 04:45:12;;;;;;;48.35;25.02;;;1.00;99.90;;;;;;5074636;28;20198;-81
2021/12/09 04:47:40;;;;;;;57.83;26.73;;;1.00;99.90;;;;;;5074651;28;20281;-81
2021/12/09 04:50:11;;;;;;;44.80;23.33;;;1.40;99.90;;;;;;5075006;28;20575;-82
2021/12/09 04:52:37;;;;;;;52.45;25.80;;;1.00;99.90;;;;;;5074739;28;20182;-82
2021/12/09 04:55:05;;;;;;;48.55;26.15;;;1.00;99.90;;;;;;5074647;28;20217;-82
2021/12/09 04:57:34;;;;;;;51.42;25.33;;;0.90;99.90;;;;;;5074564;28;20597;-82
2021/12/09 05:00:00;;;;;;;49.13;24.10;;;0.90;99.90;;;;;;5074339;28;20225;-82
2021/12/09 05:02:36;;;;;;;54.85;25.55;;;1.00;99.90;;;;;;5074041;28;20189;-81
2021/12/09 05:05:03;;;;;;;49.25;25.90;;;1.00;99.90;;;;;;5074987;28;20216;-81
2021/12/09 05:07:30;;;;;;;46.03;24.60;;;1.00;99.90;;;;;;5074307;28;20220;-81
2021/12/09 05:09:56;;;;;;;49.97;25.02;;;1.00;99.90;;;;;;5074616;28;20217;-81
2021/12/09 05:12:23;;;;;;;53.75;25.80;;;1.00;99.90;;;;;;5073995;28;20217;-80
2021/12/09 05:14:51;;;;;;;52.30;24.80;;;1.00;99.90;;;;;;5074057;28;20643;-80
2021/12/09 05:17:18;;;;;;;52.75;27.42;;;1.10;99.90;;;;;;5074224;28;20285;-80
2021/12/09 05:19:46;;;;;;;51.03;27.23;;;1.00;99.90;;;;;;5074122;28;20248;-80
2021/12/09 05:22:13;;;;;;;46.20;25.35;;;1.00;99.90;;;;;;5074030;28;20574;-81
2021/12/09 05:24:40;;;;;;;55.17;25.13;;;1.00;99.90;;;;;;5073824;28;20272;-80
2021/12/09 05:27:08;;;;;;;52.78;24.67;;;1.00;99.90;;;;;;5073827;28;20590;-80
2021/12/09 05:29:39;;;;;;;50.13;24.98;;;1.00;99.90;;;;;;5073638;28;20193;-80
2021/12/09 05:32:08;;;;;;;49.65;25.65;;;1.10;99.90;;;;;;5073911;28;20189;-81
2021/12/09 05:34:37;;;;;;;46.83;24.15;;;1.10;99.90;;;;;;5073879;28;20181;-78
2021/12/09 05:37:05;;;;;;;49.08;23.88;;;1.10;99.90;;;;;;5073707;28;20739;-78
2021/12/09 05:39:31;;;;;;;47.55;27.40;;;1.10;99.90;;;;;;5073326;28;20316;-79
2021/12/09 05:41:59;;;;;;;46.50;23.88;;;1.10;99.90;;;;;;5073686;28;20186;-79
2021/12/09 05:44:25;;;;;;;46.83;23.70;;;1.20;99.90;;;;;;5072631;28;20185;-78
2021/12/09 05:46:53;;;;;;;47.90;24.77;;;1.10;99.90;;;;;;5073681;28;20274;-79
2021/12/09 05:49:21;;;;;;;46.60;25.20;;;1.10;99.90;;;;;;5073537;28;20599;-78
2021/12/09 05:51:48;;;;;;;54.53;26.15;;;1.10;99.90;;;;;;5073333;28;20721;-78
2021/12/09 05:54:14;;;;;;;52.40;26.92;;;1.10;99.90;;;;;;5073313;28;20194;-80
2021/12/09 05:56:41;;;;;;;46.83;23.92;;;1.10;99.90;;;;;;5073552;28;20215;-80
2021/12/09 05:59:08;;;;;;;45.70;23.77;;;1.10;99.90;;;;;;5073354;28;20303;-80
2021/12/09 06:01:35;;;;;;;48.00;23.65;;;1.20;99.90;;;;;;5073184;28;20220;-80
2021/12/09 06:04:02;;;;;;;49.85;24.10;;;1.20;99.90;;;;;;5073584;28;20284;-80
2021/12/09 06:06:29;;;;;;;52.35;25.45;;;1.30;99.90;;;;;;5073108;28;20227;-80
2021/12/09 06:08:56;;;;;;;48.67;26.25;;;1.10;99.90;;;;;;5073139;28;20276;-80
2021/12/09 06:11:23;;;;;;;52.72;26.13;;;1.10;99.90;;;;;;5072748;28;20217;-82
2021/12/09 06:13:50;;;;;;;50.78;27.13;;;1.10;99.90;;;;;;5072858;28;20185;-81
2021/12/09 06:16:16;;;;;;;49.53;24.85;;;1.10;99.90;;;;;;5073207;28;20644;-91
2021/12/09 06:18:43;;;;;;;60.28;27.25;;;1.10;99.90;;;;;;5073046;28;20540;-83
2021/12/09 06:21:10;;;;;;;54.20;28.98;;;1.10;99.90;;;;;;5073164;28;20214;-84
2021/12/09 06:23:38;;;;;;;56.15;27.45;;;1.10;99.90;;;;;;5073403;28;20284;-84
2021/12/09 06:26:06;;;;;;;50.88;26.17;;;1.10;99.90;;;;;;5073327;28;20182;-84
2021/12/09 06:28:33;;;;;;;51.05;27.33;;;1.10;99.90;;;;;;5073584;28;20208;-84
2021/12/09 06:31:00;;;;;;;45.10;24.83;;;1.20;99.90;;;;;;5073370;28;20236;-81
2021/12/09 06:33:27;;;;;;;54.83;25.30;;;1.20;99.90;;;;;;5073059;28;20227;-80
2021/12/09 06:35:53;;;;;;;54.08;27.83;;;1.70;99.90;;;;;;5073073;28;20189;-78
2021/12/09 06:38:20;;;;;;;52.95;27.00;;;1.20;99.90;;;;;;5071729;28;20340;-79
2021/12/09 06:40:48;;;;;;;53.33;25.73;;;1.20;99.90;;;;;;5072844;28;20215;-81
2021/12/09 06:43:15;;;;;;;56.35;25.95;;;1.20;99.90;;;;;;5072890;28;20189;-81
2021/12/09 06:45:43;;;;;;;52.92;27.48;;;1.20;99.90;;;;;;5068604;28;20293;-79
2021/12/09 06:48:09;;;;;;;52.88;26.10;;;1.10;99.90;;;;;;5070347;28;20185;-78
2021/12/09 06:50:37;;;;;;;52.33;26.27;;;1.10;99.90;;;;;;5072488;28;20188;-78
2021/12/09 06:53:04;;;;;;;50.97;27.45;;;1.10;99.90;;;;;;5072389;28;20280;-78
2021/12/09 06:55:31;;;;;;;51.50;27.25;;;1.10;99.90;;;;;;5072089;28;20281;-79
2021/12/09 06:57:59;;;;;;;51.30;25.75;;;1.10;99.90;;;;;;5060107;28;20197;-78
2021/12/09 07:00:28;;;;;;;53.15;25.95;;;1.10;99.90;;;;;;5055622;28;20213;-78
2021/12/09 07:02:54;;;;;;;58.88;28.75;;;1.10;99.90;;;;;;5059749;28;20273;-78
2021/12/09 07:05:24;;;;;;;56.67;27.90;;;1.20;99.90;;;;;;5070535;28;20213;-78
2021/12/09 07:07:51;;;;;;;49.78;25.58;;;1.10;99.90;;;;;;5072557;28;20272;-80
2021/12/09 07:10:19;;;;;;;49.38;26.20;;;1.10;99.90;;;;;;5072620;28;20552;-79
2021/12/09 07:12:47;;;;;;;58.50;26.77;;;1.10;99.90;;;;;;5072453;28;20189;-79
2021/12/09 07:15:16;;;;;;;53.13;25.25;;;1.10;99.90;;;;;;5072456;28;20185;-81
2021/12/09 07:17:43;;;;;;;54.65;25.95;;;1.00;99.90;;;;;;5072307;28;20224;-81
2021/12/09 07:20:12;;;;;;;53.05;28.77;;;1.00;99.90;;;;;;5071818;28;20236;-81
2021/12/09 07:22:39;;;;;;;56.92;27.80;;;1.00;99.90;;;;;;5072069;28;20700;-79
2021/12/09 07:25:07;;;;;;;59.92;27.48;;;1.00;99.90;;;;;;5072106;28;20190;-79
2021/12/09 07:27:34;;;;;;;63.25;28.58;;;1.00;99.90;;;;;;5072160;28;20231;-79
2021/12/09 07:30:02;;;;;;;57.85;28.55;;;1.00;99.90;;;;;;5072475;28;20213;-79
2021/12/09 07:32:31;;;;;;;58.60;28.45;;;1.00;99.90;;;;;;5072033;28;20216;-78
2021/12/09 07:34:58;;;;;;;55.65;28.45;;;0.90;99.90;;;;;;5071941;28;20264;-79
2021/12/09 07:37:25;;;;;;;53.33;26.38;;;0.90;99.90;;;;;;5071973;28;20213;-79
2021/12/09 07:39:51;;;;;;;56.30;27.67;;;1.00;99.90;;;;;;5072235;28;20775;-79
2021/12/09 07:42:18;;;;;;;51.92;26.40;;;1.00;99.90;;;;;;5071637;28;20271;-82
2021/12/09 07:44:45;;;;;;;56.20;27.17;;;1.00;99.90;;;;;;5072117;28;20217;-82
2021/12/09 07:47:12;;;;;;;58.50;26.98;;;1.00;99.90;;;;;;5071631;28;20621;-81
2021/12/09 07:49:39;;;;;;;54.97;26.75;;;1.00;99.90;;;;;;5072388;28;20274;-82
2021/12/09 07:52:07;;;;;;;70.03;29.58;;;1.00;99.90;;;;;;5076052;28;20266;-81
2021/12/09 07:54:34;;;;;;;50.35;25.88;;;1.00;99.90;;;;;;5076027;28;20261;-81
2021/12/09 07:57:02;;;;;;;52.63;26.92;;;1.00;99.90;;;;;;5075714;28;20235;-82
2021/12/09 07:59:29;;;;;;;62.63;27.73;;;1.20;99.90;;;;;;5075942;28;20541;-82
2021/12/09 08:01:56;;;;;;;57.67;28.40;;;1.00;99.90;;;;;;5076651;28;20585;-81
2021/12/09 08:04:22;;;;;;;57.38;28.15;;;1.10;99.90;;;;;;5076208;28;20212;-81
2021/12/09 08:06:51;;;;;;;64.50;28.02;;;1.10;99.90;;;;;;5075967;28;20345;-82
2021/12/09 08:09:17;;;;;;;55.55;27.83;;;1.20;99.90;;;;;;5075430;28;20244;-79
2021/12/09 08:11:44;;;;;;;55.70;28.20;;;1.10;99.90;;;;;;5075211;28;20611;-79
2021/12/09 08:14:15;;;;;;;61.25;27.95;;;1.40;99.90;;;;;;5075458;28;20544;-80
2021/12/09 08:16:42;;;;;;;51.15;29.80;;;1.00;99.90;;;;;;5075316;28;20197;-80
2021/12/09 08:19:10;;;;;;;66.00;28.23;;;1.00;99.90;;;;;;5075654;28;20243;-80
2021/12/09 08:21:38;;;;;;;49.22;26.55;;;1.00;99.90;;;;;;5074938;28;20276;-80
2021/12/09 08:24:07;;;;;;;63.58;30.50;;;1.70;99.90;;;;;;5075286;28;20281;-79
2021/12/09 08:26:34;;;;;;;58.15;28.77;;;1.10;99.90;;;;;;5075100;28;20216;-78
2021/12/09 08:29:01;;;;;;;58.00;28.80;;;1.10;99.90;;;;;;5075457;28;20181;-80
2021/12/09 08:31:30;;;;;;;62.78;30.75;;;1.10;99.90;;;;;;5075573;28;20644;-80
2021/12/09 08:33:58;;;;;;;59.35;28.98;;;1.30;99.90;;;;;;5075041;28;20192;-78
2021/12/09 08:36:24;;;;;;;64.45;30.85;;;1.10;99.90;;;;;;5074887;28;20182;-78
2021/12/09 08:38:51;;;;;;;60.53;29.42;;;1.10;99.90;;;;;;5074800;28;20298;-78
2021/12/09 08:41:19;;;;;;;56.85;27.52;;;1.10;99.90;;;;;;5074582;28;20306;-78
2021/12/09 08:43:46;;;;;;;56.45;27.50;;;1.10;99.90;;;;;;5074610;28;20623;-78
2021/12/09 08:46:15;;;;;;;70.47;30.13;;;1.10;99.90;;;;;;5075339;28;20277;-78
2021/12/09 08:48:46;;;;;;;56.53;28.80;;;1.10;99.90;;;;;;5074557;28;20656;-78
2021/12/09 08:51:13;;;;;;;59.08;30.10;;;1.10;99.90;;;;;;5075194;28;20185;-78
2021/12/09 08:53:40;;;;;;;57.13;29.02;;;1.20;99.90;;;;;;5074333;28;20186;-79
2021/12/09 08:56:06;;;;;;;52.67;28.67;;;1.20;99.90;;;;;;5074766;28;20270;-86
2021/12/09 08:58:34;;;;;;;56.30;29.63;;;1.60;99.90;;;;;;5074712;28;20272;-80
2021/12/09 09:01:01;;;;;;;60.90;27.50;;;1.20;99.90;;;;;;5068761;28;20213;-80
2021/12/09 09:03:29;;;;;;;61.08;29.85;;;1.40;99.90;;;;;;5066147;28;20192;-80
2021/12/09 09:05:56;;;;;;;55.05;27.85;;;1.20;99.90;;;;;;5074393;28;20186;-80
2021/12/09 09:08:22;;;;;;;53.65;28.42;;;1.20;99.90;;;;;;5074422;28;20204;-80
2021/12/09 09:10:50;;;;;;;58.40;30.00;;;1.30;99.90;;;;;;5074951;28;20224;-80
2021/12/09 09:13:16;;;;;;;58.88;30.95;;;1.30;99.90;;;;;;5074776;28;20209;-80
2021/12/09 09:15:48;;;;;;;60.40;30.00;;;1.40;99.90;;;;;;5074461;28;20232;-80
2021/12/09 09:18:15;;;;;;;60.88;29.85;;;1.40;99.90;;;;;;5074516;28;20193;-80
2021/12/09 09:20:42;;;;;;;59.63;28.30;;;1.40;99.90;;;;;;5074480;28;20305;-80
2021/12/09 09:23:10;;;;;;;56.00;28.33;;;1.40;99.90;;;;;;5074199;28;20451;-80
2021/12/09 09:25:37;;;;;;;59.58;29.38;;;1.50;99.90;;;;;;5074102;28;20193;-80
2021/12/09 09:28:04;;;;;;;58.95;28.60;;;1.90;99.90;;;;;;5074026;28;20192;-80
2021/12/09 09:30:35;;;;;;;54.97;28.15;;;1.60;99.90;;;;;;5074234;28;20706;-80
2021/12/09 09:33:05;;;;;;;55.42;28.65;;;1.60;99.90;;;;;;5074125;28;20204;-80
2021/12/09 09:35:32;;;;;;;50.80;28.10;;;1.60;99.90;;;;;;5073664;28;20228;-80
2021/12/09 09:37:59;;;;;;;56.22;29.63;;;1.70;99.90;;;;;;5074179;28;20304;-80
2021/12/09 09:40:29;;;;;;;67.15;30.05;;;1.50;99.90;;;;;;5064471;28;20645;-81
2021/12/09 09:43:13;;;;;;;52.63;27.05;;;2.10;99.90;;;;;;5072691;28;20702;-81
2021/12/09 09:45:40;;;;;;;51.28;27.45;;;1.60;99.90;;;;;;5073788;28;20308;-81
2021/12/09 09:48:12;;;;;;;55.78;28.52;;;1.70;99.90;;;;;;5071253;28;20213;-81
2021/12/09 09:50:39;;;;;;;55.28;27.83;;;1.70;99.90;;;;;;5073091;28;20184;-80
2021/12/09 09:53:09;;;;;;;58.90;28.17;;;1.80;99.90;;;;;;5072527;28;20281;-81
2021/12/09 09:55:36;;;;;;;52.47;28.10;;;1.80;99.90;;;;;;5073781;28;20459;-81
2021/12/09 09:58:03;;;;;;;51.33;29.50;;;1.90;99.90;;;;;;5070056;28;20223;-81
2021/12/09 10:00:30;;;;;;;52.83;25.70;;;2.00;99.90;;;;;;5072669;28;20240;-81
2021/12/09 10:02:59;;;;;;;49.72;27.45;;;2.00;99.90;;;;;;5073337;28;20230;-81
2021/12/09 10:05:36;;;;;;;56.05;28.45;;;2.10;99.90;;;;;;5072505;28;20615;-81
2021/12/09 10:08:03;;;;;;;48.78;27.95;;;2.10;99.90;;;;;;5073139;28;20192;-81
2021/12/09 10:10:30;;;;;;;45.95;26.80;;;2.10;99.90;;;;;;5073131;28;20181;-81
2021/12/09 10:12:59;;;;;;;53.70;29.73;;;2.10;99.90;;;;;;5072637;28;20276;-81
2021/12/09 10:15:34;;;;;;;57.08;29.08;;;2.10;99.90;;;;;;5072806;28;20545;-81
2021/12/09 10:18:01;;;;;;;53.35;28.38;;;2.10;99.90;;;;;;5072674;28;20224;-81
2021/12/09 10:20:42;;;;;;;50.00;26.90;;;2.10;99.90;;;;;;5072547;28;20297;-81
2021/12/09 10:23:30;;;;;;;43.55;25.60;;;2.10;99.90;;;;;;5072505;28;20276;-81
2021/12/09 10:26:19;;;;;;;48.58;27.08;;;2.10;99.90;;;;;;5072775;28;20287;-85
2021/12/09 10:28:51;;;;;;;49.28;26.90;;;2.10;99.90;;;;;;5062189;28;20224;-80
2021/12/09 10:31:20;;;;;;;47.22;25.85;;;2.10;99.90;;;;;;5072890;28;20189;-81
2021/12/09 10:34:03;;;;;;;47.33;26.45;;;2.10;99.90;;;;;;5071976;28;20596;-81
2021/12/09 10:36:49;;;;;;;53.78;28.73;;;2.20;99.90;;;;;;5059730;28;20234;-81
2021/12/09 10:39:18;;;;;;;47.95;27.20;;;2.30;99.90;;;;;;5072058;28;20253;-81
2021/12/09 10:41:46;;;;;;;51.60;26.35;;;2.30;99.90;;;;;;5072015;28;20224;-81
2021/12/09 10:44:13;;;;;;;50.25;28.65;;;2.20;99.90;;;;;;5071876;28;20812;-81
2021/12/09 10:46:50;;;;;;;46.95;26.65;;;2.10;99.90;;;;;;5072389;28;20676;-81
2021/12/09 10:49:17;;;;;;;45.78;26.55;;;2.10;99.90;;;;;;5072207;28;20253;-80
2021/12/09 10:51:56;;;;;;;46.53;27.08;;;2.20;99.90;;;;;;5072198;28;20486;-81
2021/12/09 10:54:34;;;;;;;50.38;27.27;;;2.20;99.90;;;;;;5072134;28;20709;-81
2021/12/09 10:57:27;;;;;;;47.95;25.80;;;2.10;99.90;;;;;;5071307;28;20276;-81
2021/12/09 10:59:55;;;;;;;51.15;28.60;;;2.20;99.90;;;;;;5072179;28;20301;-81
2021/12/09 11:02:22;;;;;;;48.72;29.38;;;2.10;99.90;;;;;;5071998;28;20262;-81
2021/12/09 11:05:03;;;;;;;51.75;29.63;;;2.20;99.90;;;;;;5072010;28;20271;-81
2021/12/09 11:07:32;;;;;;;51.13;27.27;;;2.30;99.90;;;;;;5057726;28;20730;-81
2021/12/09 11:10:19;;;;;;;51.83;27.35;;;2.40;99.90;;;;;;5071118;28;20664;-80
2021/12/09 11:12:56;;;;;;;49.25;27.02;;;2.50;99.90;;;;;;5068633;28;20234;-80
2021/12/09 11:15:43;;;;;;;54.78;26.98;;;2.60;99.90;;;;;;5071507;28;20193;-80
2021/12/09 11:18:25;;;;;;;48.88;27.85;;;2.60;99.90;;;;;;5070155;28;20181;-80
2021/12/09 11:20:52;;;;;;;47.33;26.05;;;2.60;99.90;;;;;;5071263;28;20217;-81
2021/12/09 11:23:30;;;;;;;47.53;27.80;;;2.60;99.90;;;;;;5072301;28;20181;-80
2021/12/09 11:26:00;;;;;;;45.75;26.35;;;2.70;99.90;;;;;;5074474;28;20198;-80
2021/12/09 11:28:27;;;;;;;48.65;27.30;;;2.80;99.90;;;;;;5069582;28;20236;-81
2021/12/09 11:31:08;;;;;;;44.13;27.33;;;2.90;99.90;;;;;;5075430;28;20262;-80
2021/12/09 11:33:40;;;;;;;49.00;27.73;;;2.80;99.90;;;;;;5075944;28;20196;-80
2021/12/09 11:36:07;;;;;;;48.70;28.00;;;2.80;99.90;;;;;;5072889;28;20279;-80
2021/12/09 11:39:05;;;;;;;50.92;28.90;;;2.70;99.90;;;;;;5074793;28;20219;-80
2021/12/09 11:41:35;;;;;;;47.97;27.63;;;2.70;99.90;;;;;;5075743;28;20216;-80
2021/12/09 11:44:02;;;;;;;47.80;26.58;;;2.70;99.90;;;;;;5074916;28;20584;-81
2021/12/09 11:46:29;;;;;;;48.50;26.25;;;2.80;99.90;;;;;;5074899;28;20181;-80
2021/12/09 11:48:56;;;;;;;44.17;26.42;;;2.80;99.90;;;;;;5075431;28;20216;-80
2021/12/09 11:51:24;;;;;;;44.85;27.88;;;2.80;99.90;;;;;;5075448;28;20191;-80
2021/12/09 11:53:55;;;;;;;46.55;26.13;;;2.80;99.90;;;;;;5074619;28;20280;-81
2021/12/09 11:56:29;;;;;;;50.33;26.33;;;2.70;99.90;;;;;;5075266;28;20200;-81
2021/12/09 11:59:22;;;;;;;49.05;27.88;;;2.80;99.90;;;;;;5075157;28;20189;-81
2021/12/09 12:07:58;;;;;;;48.40;26.40;;;2.80;99.90;;;;;;5074663;28;20549;-80
2021/12/09 12:13:41;;;;;;;45.83;24.65;;;2.90;99.90;;;;;;5075325;28;20192;-80
2021/12/09 12:16:46;;;;;;;45.60;24.90;;;2.90;99.90;;;;;;5066629;28;20192;-81
2021/12/09 12:19:23;;;;;;;48.97;27.45;;;3.00;99.90;;;;;;5074644;28;20652;-81
2021/12/09 12:22:11;;;;;;;38.80;24.65;;;3.00;99.90;;;;;;5060420;28;20271;-80
2021/12/09 12:25:10;;;;;;;49.25;25.63;;;3.00;99.90;;;;;;5074318;28;20188;-81
2021/12/09 12:27:51;;;;;;;47.85;25.95;;;3.10;99.90;;;;;;5074704;28;20231;-80
2021/12/09 12:30:39;;;;;;;49.95;25.98;;;3.10;99.90;;;;;;5066471;28;20617;-80
2021/12/09 12:33:22;;;;;;;52.25;27.75;;;3.50;99.90;;;;;;5072121;28;20667;-80
2021/12/09 12:36:03;;;;;;;45.30;25.77;;;3.40;99.90;;;;;;5074173;28;20221;-80
2021/12/09 12:38:47;;;;;;;46.65;26.25;;;3.40;99.90;;;;;;5073996;28;20300;-81
2021/12/09 12:41:16;;;;;;;47.40;27.42;;;3.50;99.90;;;;;;5073926;28;20217;-81
2021/12/09 12:43:53;;;;;;;45.50;25.40;;;3.30;99.90;;;;;;5073562;28;20189;-80
2021/12/09 12:46:41;;;;;;;50.80;27.40;;;3.20;99.90;;;;;;5072687;28;20200;-80
2021/12/09 12:49:16;;;;;;;49.13;27.20;;;3.10;99.90;;;;;;5071760;28;20572;-80
2021/12/09 12:51:53;;;;;;;46.72;25.67;;;3.10;99.90;;;;;;5074102;28;20216;-80
2021/12/09 12:54:42;;;;;;;51.78;28.27;;;3.00;99.90;;;;;;5075031;28;20192;-80
2021/12/09 12:57:15;;;;;;;51.08;26.63;;;3.00;99.90;;;;;;5073969;28;20279;-80